Mesquite, Nevada
Current Conditions -  °F | °C
As of 1:15 AM on Sunday 28 Dec 2014 (Local Time) from KSGU Reporting Station
Clear Clear  
Wind Chill: 20°   Ceiling: Unl
Heat Index: 27°   Visibility: 10mi
Dew Point:   Wind: 6mph
Humidity: 40%   Direction: 130°SE
Pressure: 30.33"   Gusts: NA
Location:  36.8°N, 114.11°W
Report Text: KSGU 280915Z AUTO 13005KT 10SM CLR M03/M15 A3033 RMK AO1
Loading
Personal Weather Stations






























Interactive Weather Map New forecast layout! Learn more

10-Day Weather Forecast

Advertisements
Track Severe Weather on mobile